Archival Weather

Phoenix Sky Harbor Intl

Phoenix, Arizona (KPHX)

Report from: Thursday, December 7, 2023 8:51 PM MST
Current time: Monday, July 22, 2024 3:27 AM MST

Current weather – Weather history – Daily summaries
Weather forecast

Temperature19.4°C (66.9°F)
Dew point2.2°C (36.0°F)
Winds Calm
Visibility10 mi. (16.1 km)
Clouds Sky clear
Altimeter29.88 in.Hg (1012 mB)
Relative humidity32 %
Density altitude701 ft. (214 m)
Sea-level pressure101.1 kPa (1011 mB, 29.85 in.Hg)
Remarks Automated weather observing station with precipitation discriminator
Flight conditions Visual Meteorological Conditions
Raw dataKPHX 080351Z 00000KT 10SM CLR 19/02 A2988 RMK AO2 SLP110 T01940022
An error has occurred. This application may no longer respond until reloaded. Reload 🗙